createdAt,value
2022-12-14T00:01:34.995Z,-2.83
2022-12-14T00:04:01.609Z,-2.85
2022-12-14T00:06:32.592Z,-2.86
2022-12-14T00:09:01.660Z,-2.84
2022-12-14T00:11:29.607Z,-2.83
2022-12-14T00:13:58.612Z,-2.84
2022-12-14T00:16:27.681Z,-2.85
2022-12-14T00:18:55.977Z,-2.84
2022-12-14T00:21:23.467Z,-2.86
2022-12-14T00:23:51.593Z,-2.86
2022-12-14T00:26:20.907Z,-2.84
2022-12-14T00:28:49.379Z,-2.85
2022-12-14T00:31:16.189Z,-2.84
2022-12-14T00:33:43.152Z,-2.81
2022-12-14T00:36:11.859Z,-2.79
2022-12-14T00:38:38.931Z,-2.77
2022-12-14T00:41:06.463Z,-2.74
2022-12-14T00:43:33.572Z,-2.73
2022-12-14T00:46:00.287Z,-2.77
2022-12-14T00:48:27.825Z,-2.80
2022-12-14T00:50:55.978Z,-2.81
2022-12-14T00:53:23.996Z,-2.79
2022-12-14T00:55:51.321Z,-2.74
2022-12-14T00:58:21.342Z,-2.73
2022-12-14T01:00:57.833Z,-2.73
2022-12-14T01:03:24.875Z,-2.75
2022-12-14T01:05:51.684Z,-2.79
2022-12-14T01:08:20.545Z,-2.81
2022-12-14T01:10:47.267Z,-2.80
2022-12-14T01:13:13.861Z,-2.80
2022-12-14T01:15:40.535Z,-2.80
2022-12-14T01:18:09.460Z,-2.79
2022-12-14T01:20:36.026Z,-2.78
2022-12-14T01:23:02.642Z,-2.78
2022-12-14T01:25:30.346Z,-2.78
2022-12-14T01:27:56.851Z,-2.76
2022-12-14T01:30:23.459Z,-2.78
2022-12-14T01:32:51.087Z,-2.80
2022-12-14T01:35:17.644Z,-2.81
2022-12-14T01:37:44.498Z,-2.80
2022-12-14T01:40:12.593Z,-2.79
2022-12-14T01:42:39.259Z,-2.80
2022-12-14T01:45:06.693Z,-2.81
2022-12-14T01:48:00.879Z,-2.83
2022-12-14T01:50:39.940Z,-2.86
2022-12-14T01:53:10.036Z,-2.85
2022-12-14T01:55:42.988Z,-2.89
2022-12-14T01:58:28.914Z,-2.95
2022-12-14T02:00:59.566Z,-2.98
2022-12-14T02:03:33.646Z,-3.04
2022-12-14T02:06:08.319Z,-3.07
2022-12-14T02:08:35.820Z,-3.10
2022-12-14T02:11:03.095Z,-3.12
2022-12-14T02:13:37.330Z,-3.16
2022-12-14T02:16:04.401Z,-3.21
2022-12-14T02:18:32.393Z,-3.25
2022-12-14T02:21:20.403Z,-3.30
2022-12-14T02:24:11.875Z,-3.38
2022-12-14T02:27:03.498Z,-3.41
2022-12-14T02:29:46.055Z,-3.48
2022-12-14T02:32:39.240Z,-3.49
2022-12-14T02:35:39.635Z,-3.50
2022-12-14T02:38:30.932Z,-3.54
2022-12-14T02:41:06.899Z,-3.59
2022-12-14T02:43:36.545Z,-3.62
2022-12-14T02:46:04.231Z,-3.64
2022-12-14T02:48:41.735Z,-3.67
2022-12-14T02:51:55.680Z,-3.71
2022-12-14T02:54:37.933Z,-3.78
2022-12-14T02:57:13.848Z,-3.85
2022-12-14T02:59:41.695Z,-3.90
2022-12-14T03:02:11.066Z,-3.91
2022-12-14T03:04:46.103Z,-3.93
2022-12-14T03:07:34.646Z,-3.95
2022-12-14T03:10:19.444Z,-4.00
2022-12-14T03:12:55.030Z,-4.03
2022-12-14T03:15:26.685Z,-4.05
2022-12-14T03:17:57.940Z,-4.07
2022-12-14T03:20:26.809Z,-4.09
2022-12-14T03:23:08.007Z,-4.10
2022-12-14T03:26:08.741Z,-4.13
2022-12-14T03:28:50.747Z,-4.15
2022-12-14T03:31:34.865Z,-4.17
2022-12-14T03:34:05.359Z,-4.17
2022-12-14T03:36:43.957Z,-4.18
2022-12-14T03:39:17.632Z,-4.19
2022-12-14T03:41:48.967Z,-4.20
2022-12-14T03:44:23.900Z,-4.21
2022-12-14T03:47:31.105Z,-4.22
2022-12-14T03:50:13.234Z,-4.25
2022-12-14T03:52:42.320Z,-4.28
2022-12-14T03:55:20.773Z,-4.32
2022-12-14T03:57:53.723Z,-4.35
2022-12-14T04:00:24.715Z,-4.37
2022-12-14T04:03:09.435Z,-4.39
2022-12-14T04:05:48.526Z,-4.40
2022-12-14T04:08:25.170Z,-4.41
2022-12-14T04:11:14.544Z,-4.44
2022-12-14T04:14:11.844Z,-4.44
2022-12-14T04:17:01.465Z,-4.44
2022-12-14T04:19:53.772Z,-4.44
2022-12-14T04:22:27.998Z,-4.44
2022-12-14T04:25:13.161Z,-4.46
2022-12-14T04:27:47.626Z,-4.44
2022-12-14T04:30:16.541Z,-4.45
2022-12-14T04:32:46.225Z,-4.47
2022-12-14T04:35:20.910Z,-4.47
2022-12-14T04:37:59.454Z,-4.45
2022-12-14T04:40:44.402Z,-4.48
2022-12-14T04:43:18.456Z,-4.50
2022-12-14T04:46:13.543Z,-4.53
2022-12-14T04:48:54.727Z,-4.54
2022-12-14T04:51:41.999Z,-4.55
2022-12-14T04:54:22.506Z,-4.58
2022-12-14T04:56:54.971Z,-4.61
2022-12-14T04:59:22.637Z,-4.60
2022-12-14T05:02:08.225Z,-4.60
2022-12-14T05:04:55.526Z,-4.61
2022-12-14T05:07:40.020Z,-4.61
2022-12-14T05:10:13.601Z,-4.64
2022-12-14T05:12:57.885Z,-4.65
2022-12-14T05:15:32.780Z,-4.67
2022-12-14T05:18:04.018Z,-4.71
2022-12-14T05:20:30.645Z,-4.75
2022-12-14T05:22:58.772Z,-4.76
2022-12-14T05:25:25.369Z,-4.79
2022-12-14T05:27:52.202Z,-4.83
2022-12-14T05:30:19.040Z,-4.88
2022-12-14T05:32:45.920Z,-4.91
2022-12-14T05:35:15.229Z,-4.90
2022-12-14T05:37:43.111Z,-4.92
2022-12-14T05:40:10.213Z,-4.90
2022-12-14T05:42:42.618Z,-4.91
2022-12-14T05:45:14.546Z,-4.91
2022-12-14T05:47:41.385Z,-4.92
2022-12-14T05:50:08.679Z,-4.92
2022-12-14T05:52:36.301Z,-4.96
2022-12-14T05:55:04.709Z,-4.99
2022-12-14T05:57:32.070Z,-5.01
2022-12-14T05:59:58.732Z,-5.01
2022-12-14T06:02:25.371Z,-5.03
2022-12-14T06:04:52.348Z,-5.01
2022-12-14T06:07:21.788Z,-5.01
2022-12-14T06:09:52.696Z,-4.99
2022-12-14T06:12:19.378Z,-5.00
2022-12-14T06:14:46.248Z,-5.00
2022-12-14T06:17:13.046Z,-5.02
2022-12-14T06:19:39.664Z,-5.05
2022-12-14T06:22:06.404Z,-5.05
2022-12-14T06:24:33.109Z,-5.06
2022-12-14T06:26:59.971Z,-5.09
2022-12-14T06:29:26.573Z,-5.09
2022-12-14T06:31:53.482Z,-5.07
2022-12-14T06:34:23.571Z,-5.07
2022-12-14T06:36:54.952Z,-5.07
2022-12-14T06:39:21.683Z,-5.08
2022-12-14T06:41:51.939Z,-5.10
2022-12-14T06:44:19.136Z,-5.13
2022-12-14T06:46:46.535Z,-5.18
2022-12-14T06:49:16.585Z,-5.23
2022-12-14T06:51:43.989Z,-5.25
2022-12-14T06:54:12.386Z,-5.29
2022-12-14T06:56:39.388Z,-5.32
2022-12-14T06:59:09.747Z,-5.36
2022-12-14T07:01:38.424Z,-5.43
2022-12-14T07:04:06.820Z,-5.47
2022-12-14T07:06:36.876Z,-5.52
2022-12-14T07:09:05.113Z,-5.54
2022-12-14T07:11:32.266Z,-5.57
2022-12-14T07:14:06.070Z,-5.60
2022-12-14T07:16:35.434Z,-5.64
2022-12-14T07:19:02.400Z,-5.67
2022-12-14T07:21:29.445Z,-5.68
2022-12-14T07:24:00.200Z,-5.73
2022-12-14T07:26:27.663Z,-5.76
2022-12-14T07:28:55.134Z,-5.78
2022-12-14T07:31:25.192Z,-5.80
2022-12-14T07:33:54.364Z,-5.84
2022-12-14T07:36:23.443Z,-5.87
2022-12-14T07:38:51.701Z,-5.93
2022-12-14T07:41:36.969Z,-5.95
2022-12-14T07:44:03.743Z,-5.98
2022-12-14T07:46:32.379Z,-6.04
2022-12-14T07:49:00.586Z,-6.07
2022-12-14T07:51:32.647Z,-6.11
2022-12-14T07:54:01.589Z,-6.15
2022-12-14T07:56:31.341Z,-6.16
2022-12-14T07:58:59.729Z,-6.16
2022-12-14T08:01:29.124Z,-6.20
2022-12-14T08:03:58.781Z,-6.22
2022-12-14T08:06:28.327Z,-6.21
2022-12-14T08:08:56.095Z,-6.24
2022-12-14T08:11:23.377Z,-6.27
2022-12-14T08:13:58.024Z,-6.29
2022-12-14T08:16:25.882Z,-6.29
2022-12-14T08:18:53.970Z,-6.30
2022-12-14T08:21:22.235Z,-6.27
2022-12-14T08:23:50.045Z,-6.26
2022-12-14T08:26:18.072Z,-6.23
2022-12-14T08:28:45.066Z,-6.23
2022-12-14T08:31:20.513Z,-6.22
2022-12-14T08:33:48.257Z,-6.21
2022-12-14T08:36:18.345Z,-6.23
2022-12-14T08:38:45.590Z,-6.21
2022-12-14T08:41:15.187Z,-6.23
2022-12-14T08:43:42.103Z,-6.24
2022-12-14T08:46:10.543Z,-6.24
2022-12-14T08:48:37.926Z,-6.23
2022-12-14T08:51:09.494Z,-6.20
2022-12-14T08:53:37.394Z,-6.15
2022-12-14T08:56:05.679Z,-6.11
2022-12-14T08:58:33.911Z,-6.09
2022-12-14T09:01:06.568Z,-6.06
2022-12-14T09:03:33.831Z,-5.97
2022-12-14T09:06:09.252Z,-5.93
2022-12-14T09:08:36.456Z,-5.91
2022-12-14T09:11:04.978Z,-5.86
2022-12-14T09:13:33.886Z,-5.84
2022-12-14T09:16:05.142Z,-5.81
2022-12-14T09:18:32.806Z,-5.78
2022-12-14T09:21:00.815Z,-5.72
2022-12-14T09:23:30.517Z,-5.65
2022-12-14T09:26:11.966Z,-5.58
2022-12-14T09:28:40.613Z,-5.53
2022-12-14T09:31:11.944Z,-5.49
2022-12-14T09:33:38.837Z,-5.43
2022-12-14T09:36:12.513Z,-5.38
2022-12-14T09:38:41.423Z,-5.32
2022-12-14T09:41:50.747Z,-5.27
2022-12-14T09:44:24.918Z,-5.20
2022-12-14T09:46:54.817Z,-5.15
2022-12-14T09:49:26.399Z,-5.09
2022-12-14T09:51:56.198Z,-5.03
2022-12-14T09:54:26.661Z,-4.97
2022-12-14T09:56:57.834Z,-4.92
2022-12-14T09:59:27.951Z,-4.88
2022-12-14T10:04:56.511Z,-4.79
2022-12-14T10:07:34.326Z,-4.74
2022-12-14T10:10:04.421Z,-4.71
2022-12-14T10:12:43.642Z,-4.66
2022-12-14T10:15:15.879Z,-4.59
2022-12-14T10:18:01.995Z,-4.55
2022-12-14T10:20:50.502Z,-4.46
2022-12-14T10:23:23.645Z,-4.41
2022-12-14T10:25:54.967Z,-4.35
2022-12-14T10:28:36.758Z,-4.28
2022-12-14T10:31:09.707Z,-4.21
2022-12-14T10:33:42.701Z,-4.16
2022-12-14T10:36:39.640Z,-4.07
2022-12-14T10:39:26.767Z,-4.02
2022-12-14T10:42:03.018Z,-3.96
2022-12-14T10:45:09.728Z,-3.84
2022-12-14T10:47:47.079Z,-3.76
2022-12-14T10:50:35.278Z,-3.70
2022-12-14T10:53:05.893Z,-3.67
2022-12-14T10:55:38.600Z,-3.63
2022-12-14T10:58:05.290Z,-3.60
2022-12-14T11:00:32.120Z,-3.53
2022-12-14T11:03:01.335Z,-3.48
2022-12-14T11:06:02.856Z,-3.42
2022-12-14T11:08:40.784Z,-3.35
2022-12-14T11:11:19.237Z,-3.34
2022-12-14T11:14:07.954Z,-3.29
2022-12-14T11:16:41.165Z,-3.22
2022-12-14T11:19:23.563Z,-3.16
2022-12-14T11:22:04.013Z,-3.11
2022-12-14T11:24:30.925Z,-3.06
2022-12-14T11:27:03.993Z,-3.02
2022-12-14T11:29:39.399Z,-2.98
2022-12-14T11:32:16.070Z,-2.96
2022-12-14T11:34:43.470Z,-2.91
2022-12-14T11:37:29.483Z,-2.89
2022-12-14T11:40:00.657Z,-2.86
2022-12-14T11:42:28.846Z,-2.83
2022-12-14T11:45:26.106Z,-2.75
2022-12-14T11:48:19.652Z,-2.66
2022-12-14T11:50:48.389Z,-2.63
2022-12-14T11:53:21.699Z,-2.63
2022-12-14T11:55:57.530Z,-2.60
2022-12-14T11:58:27.993Z,-2.54
2022-12-14T12:01:04.844Z,-2.48
2022-12-14T12:03:38.180Z,-2.45
2022-12-14T12:06:07.831Z,-2.43
2022-12-14T12:08:37.925Z,-2.42
2022-12-14T12:11:15.340Z,-2.40
2022-12-14T12:13:48.403Z,-2.36
2022-12-14T12:16:27.115Z,-2.34
2022-12-14T12:19:24.806Z,-2.32
2022-12-14T12:21:54.681Z,-2.30
2022-12-14T12:24:34.800Z,-2.26
2022-12-14T12:27:12.403Z,-2.21
2022-12-14T12:30:07.217Z,-2.20
2022-12-14T12:32:43.739Z,-2.18
2022-12-14T12:35:19.214Z,-2.15
2022-12-14T12:38:08.030Z,-2.16
2022-12-14T12:40:40.923Z,-2.13
2022-12-14T12:43:13.826Z,-2.12
2022-12-14T12:45:58.780Z,-2.09
2022-12-14T12:48:50.821Z,-2.07
2022-12-14T12:51:24.914Z,-2.06
2022-12-14T12:54:06.362Z,-2.06
2022-12-14T12:57:06.204Z,-2.04
2022-12-14T12:59:40.988Z,-1.99
2022-12-14T13:02:37.101Z,-1.96
2022-12-14T13:05:44.576Z,-1.95
2022-12-14T13:08:07.408Z,-1.95
2022-12-14T13:11:02.376Z,-1.94
2022-12-14T13:13:34.489Z,-1.92
2022-12-14T13:16:19.491Z,-1.93
2022-12-14T13:19:04.977Z,-1.93
2022-12-14T13:21:49.797Z,-1.94
2022-12-14T13:24:20.560Z,-1.97
2022-12-14T13:27:05.740Z,-1.98
2022-12-14T13:29:59.281Z,-1.99
2022-12-14T13:32:58.577Z,-2.01
2022-12-14T13:35:49.668Z,-2.03
2022-12-14T13:38:34.606Z,-2.05
2022-12-14T13:41:32.835Z,-2.07
2022-12-14T13:44:13.550Z,-2.05
2022-12-14T13:46:43.361Z,-1.98
2022-12-14T13:49:29.432Z,-1.92
2022-12-14T13:51:56.966Z,-1.92
2022-12-14T13:54:39.623Z,-1.96
2022-12-14T13:57:21.539Z,-1.98
2022-12-14T13:59:51.006Z,-1.98
2022-12-14T14:02:29.628Z,-1.96
2022-12-14T14:05:14.876Z,-1.95
2022-12-14T14:08:03.181Z,-1.97
2022-12-14T14:10:38.775Z,-1.96
2022-12-14T14:13:27.380Z,-1.93
2022-12-14T14:19:02.763Z,-2.03
2022-12-14T14:21:52.525Z,-2.07
2022-12-14T14:24:27.435Z,-2.07
2022-12-14T14:27:19.816Z,-2.08
2022-12-14T14:29:51.801Z,-2.10
2022-12-14T14:32:42.494Z,-2.13
2022-12-14T14:35:35.974Z,-2.16
2022-12-14T14:38:08.748Z,-2.22
2022-12-14T14:41:15.522Z,-2.22
2022-12-14T14:43:42.681Z,-2.23
2022-12-14T14:46:11.197Z,-2.27
2022-12-14T14:48:41.221Z,-2.32
2022-12-14T14:51:21.232Z,-2.37
2022-12-14T14:53:50.418Z,-2.42
2022-12-14T14:56:29.583Z,-2.45
2022-12-14T14:59:14.956Z,-2.49
2022-12-14T15:02:04.069Z,-2.54
2022-12-14T15:04:36.702Z,-2.59
2022-12-14T15:07:07.539Z,-2.63
2022-12-14T15:09:41.167Z,-2.67
2022-12-14T15:12:25.274Z,-2.73
2022-12-14T15:14:56.354Z,-2.78
2022-12-14T15:17:24.448Z,-2.84
2022-12-14T15:19:52.113Z,-2.89
2022-12-14T15:22:21.791Z,-2.95
2022-12-14T15:24:53.217Z,-3.01
2022-12-14T15:27:23.520Z,-3.07
2022-12-14T15:29:51.272Z,-3.12
2022-12-14T15:32:22.535Z,-3.18
2022-12-14T15:35:09.423Z,-3.21
2022-12-14T15:37:52.429Z,-3.26
2022-12-14T15:40:25.530Z,-3.32
2022-12-14T15:42:57.477Z,-3.38
2022-12-14T15:45:34.468Z,-3.44
2022-12-14T15:48:23.413Z,-3.49
2022-12-14T15:50:56.458Z,-3.57
2022-12-14T15:53:49.999Z,-3.63
2022-12-14T15:56:37.987Z,-3.68
2022-12-14T15:59:07.321Z,-3.72
2022-12-14T16:01:45.019Z,-3.75
2022-12-14T16:04:19.950Z,-3.78
2022-12-14T16:06:51.467Z,-3.82
2022-12-14T16:09:32.284Z,-3.87
2022-12-14T16:12:14.840Z,-3.91
2022-12-14T16:14:49.625Z,-3.94
2022-12-14T16:17:23.383Z,-3.99
2022-12-14T16:20:00.718Z,-4.02
2022-12-14T16:22:31.103Z,-4.04
2022-12-14T16:25:02.874Z,-4.06
2022-12-14T16:27:31.122Z,-4.11
2022-12-14T16:30:17.690Z,-4.12
2022-12-14T16:32:50.017Z,-4.13
2022-12-14T16:35:23.241Z,-4.16
2022-12-14T16:37:53.118Z,-4.20
2022-12-14T16:40:28.180Z,-4.23
2022-12-14T16:42:54.772Z,-4.24
2022-12-14T16:45:46.176Z,-4.27
2022-12-14T16:48:22.292Z,-4.30
2022-12-14T16:51:01.288Z,-4.32
2022-12-14T16:53:34.980Z,-4.34
2022-12-14T16:56:18.451Z,-4.37
2022-12-14T16:59:23.421Z,-4.40
2022-12-14T17:01:50.610Z,-4.44
2022-12-14T17:04:19.250Z,-4.46
2022-12-14T17:06:49.801Z,-4.51
2022-12-14T17:09:24.728Z,-4.56
2022-12-14T17:11:53.170Z,-4.60
2022-12-14T17:14:20.513Z,-4.63
2022-12-14T17:16:50.169Z,-4.66
2022-12-14T17:19:26.326Z,-4.67
2022-12-14T17:21:53.051Z,-4.70
2022-12-14T17:24:22.235Z,-4.71
2022-12-14T17:27:14.530Z,-4.78
2022-12-14T17:29:41.419Z,-4.80
2022-12-14T17:32:12.673Z,-4.82
2022-12-14T17:34:39.666Z,-4.84
2022-12-14T17:37:15.472Z,-4.87
2022-12-14T17:39:42.531Z,-4.92
2022-12-14T17:42:12.651Z,-4.95
2022-12-14T17:44:41.532Z,-5.00
2022-12-14T17:47:13.021Z,-5.02
2022-12-14T17:49:41.677Z,-5.03
2022-12-14T17:52:19.051Z,-5.04
2022-12-14T17:54:45.731Z,-5.07
2022-12-14T17:57:22.087Z,-5.09
2022-12-14T18:00:10.265Z,-5.14
2022-12-14T18:02:38.448Z,-5.18
2022-12-14T18:05:05.985Z,-5.19
2022-12-14T18:07:32.708Z,-5.17
2022-12-14T18:09:59.516Z,-5.19
2022-12-14T18:12:26.125Z,-5.21
2022-12-14T18:14:53.683Z,-5.22
2022-12-14T18:17:20.343Z,-5.23
2022-12-14T18:19:49.530Z,-5.26
2022-12-14T18:22:17.060Z,-5.32
2022-12-14T18:24:43.800Z,-5.33
2022-12-14T18:27:14.248Z,-5.38
2022-12-14T18:29:43.102Z,-5.39
2022-12-14T18:32:14.330Z,-5.40
2022-12-14T18:34:40.959Z,-5.40
2022-12-14T18:37:08.766Z,-5.44
2022-12-14T18:39:35.385Z,-5.45
2022-12-14T18:42:02.799Z,-5.47
2022-12-14T18:44:31.501Z,-5.51
2022-12-14T18:47:09.944Z,-5.53
2022-12-14T18:49:45.157Z,-5.52
2022-12-14T18:52:16.546Z,-5.55
2022-12-14T18:54:43.192Z,-5.56
2022-12-14T18:57:11.780Z,-5.60
2022-12-14T18:59:42.758Z,-5.62
2022-12-14T19:02:15.399Z,-5.65
2022-12-14T19:04:42.276Z,-5.69
2022-12-14T19:07:09.465Z,-5.71
2022-12-14T19:09:36.231Z,-5.73
2022-12-14T19:12:03.067Z,-5.77
2022-12-14T19:14:30.829Z,-5.79
2022-12-14T19:16:57.956Z,-5.80
2022-12-14T19:19:27.889Z,-5.82
2022-12-14T19:21:59.574Z,-5.84
2022-12-14T19:24:26.258Z,-5.85
2022-12-14T19:26:53.132Z,-5.87
2022-12-14T19:29:19.832Z,-5.88
2022-12-14T19:31:47.813Z,-5.88
2022-12-14T19:34:17.358Z,-5.91
2022-12-14T19:36:44.096Z,-5.94
2022-12-14T19:39:10.797Z,-5.98
2022-12-14T19:41:37.499Z,-5.98
2022-12-14T19:44:05.616Z,-5.97
2022-12-14T19:46:32.751Z,-5.98
2022-12-14T19:49:02.101Z,-5.97
2022-12-14T19:51:28.836Z,-5.98
2022-12-14T19:53:55.599Z,-6.00
2022-12-14T19:56:22.514Z,-6.00
2022-12-14T19:58:49.245Z,-5.99
2022-12-14T20:01:17.721Z,-6.01
2022-12-14T20:03:45.164Z,-6.01
2022-12-14T20:06:12.067Z,-6.04
2022-12-14T20:08:38.802Z,-6.06
2022-12-14T20:11:09.838Z,-6.04
2022-12-14T20:13:37.093Z,-6.01
2022-12-14T20:16:04.229Z,-5.99
2022-12-14T20:18:31.781Z,-5.98
2022-12-14T20:21:04.806Z,-5.97
2022-12-14T20:23:32.599Z,-5.96
2022-12-14T20:26:01.631Z,-5.96
2022-12-14T20:28:28.548Z,-5.97
2022-12-14T20:30:55.865Z,-5.97
2022-12-14T20:33:28.026Z,-5.95
2022-12-14T20:35:56.664Z,-5.94
2022-12-14T20:38:23.748Z,-5.92
2022-12-14T20:40:50.582Z,-5.91
2022-12-14T20:43:17.389Z,-5.92
2022-12-14T20:45:44.542Z,-5.92
2022-12-14T20:48:11.696Z,-5.93
2022-12-14T20:50:40.816Z,-5.90
2022-12-14T20:53:07.754Z,-5.90
2022-12-14T20:55:35.574Z,-5.91
2022-12-14T20:58:02.472Z,-5.94
2022-12-14T21:00:29.432Z,-5.95
2022-12-14T21:02:56.362Z,-5.95
2022-12-14T21:05:23.303Z,-5.94
2022-12-14T21:07:50.031Z,-5.91
2022-12-14T21:10:16.756Z,-5.91
2022-12-14T21:12:43.556Z,-5.92
2022-12-14T21:15:10.290Z,-5.93
2022-12-14T21:17:37.170Z,-5.91
2022-12-14T21:20:05.195Z,-5.89
2022-12-14T21:22:32.006Z,-5.88
2022-12-14T21:25:04.647Z,-5.89
2022-12-14T21:27:33.926Z,-5.86
2022-12-14T21:30:00.968Z,-5.87
2022-12-14T21:32:27.690Z,-5.90
2022-12-14T21:34:54.555Z,-5.89
2022-12-14T21:37:22.035Z,-5.88
2022-12-14T21:39:54.744Z,-5.88
2022-12-14T21:42:25.772Z,-5.87
2022-12-14T21:44:54.294Z,-5.86
2022-12-14T21:47:29.231Z,-5.86
2022-12-14T21:49:57.026Z,-5.86
2022-12-14T21:52:27.532Z,-5.85
2022-12-14T21:54:54.704Z,-5.82
2022-12-14T21:57:42.877Z,-5.82
2022-12-14T22:00:16.936Z,-5.81
2022-12-14T22:02:44.024Z,-5.80
2022-12-14T22:05:11.115Z,-5.82
2022-12-14T22:07:37.936Z,-5.82
2022-12-14T22:10:05.491Z,-5.80
2022-12-14T22:12:32.245Z,-5.76
2022-12-14T22:14:59.016Z,-5.75
2022-12-14T22:17:25.658Z,-5.70
2022-12-14T22:19:54.397Z,-5.66
2022-12-14T22:22:21.203Z,-5.65
2022-12-14T22:24:49.531Z,-5.65
2022-12-14T22:27:16.177Z,-5.64
2022-12-14T22:29:42.856Z,-5.63
2022-12-14T22:32:12.307Z,-5.63
2022-12-14T22:34:39.386Z,-5.62
2022-12-14T22:37:07.231Z,-5.59
2022-12-14T22:39:34.080Z,-5.58
2022-12-14T22:42:01.941Z,-5.56
2022-12-14T22:44:30.750Z,-5.54
2022-12-14T22:46:57.846Z,-5.52
2022-12-14T22:49:24.646Z,-5.48
2022-12-14T22:51:51.346Z,-5.47
2022-12-14T22:54:22.651Z,-5.46
2022-12-14T22:56:55.303Z,-5.45
2022-12-14T22:59:30.422Z,-5.45
2022-12-14T23:02:00.157Z,-5.44
2022-12-14T23:04:27.050Z,-5.45
2022-12-14T23:06:54.962Z,-5.45
2022-12-14T23:09:41.668Z,-5.44
2022-12-14T23:12:26.990Z,-5.44
2022-12-14T23:15:12.495Z,-5.46
2022-12-14T23:17:59.243Z,-5.49
2022-12-14T23:20:45.530Z,-5.52
2022-12-14T23:23:31.247Z,-5.52
2022-12-14T23:26:21.047Z,-5.56
2022-12-14T23:29:06.673Z,-5.57
2022-12-14T23:31:51.941Z,-5.59
2022-12-14T23:34:37.281Z,-5.57
2022-12-14T23:37:22.731Z,-5.55
2022-12-14T23:40:07.950Z,-5.54
2022-12-14T23:42:53.158Z,-5.53
2022-12-14T23:45:39.506Z,-5.53
2022-12-14T23:48:24.641Z,-5.54
2022-12-14T23:51:10.166Z,-5.54
2022-12-14T23:53:55.662Z,-5.53
2022-12-14T23:56:41.103Z,-5.53
2022-12-14T23:59:31.949Z,-5.52
